Time,TemperatureF,DewpointF,PressureIn,WindDirection,WindDirectionDegrees,WindSpeedMPH,WindSpeedGustMPH,Humidity,HourlyPrecipIn,Conditions,Clouds,dailyrainin,SoftwareType,DateUTC
2013-06-26 00:01:00,65.5,65.5,28.68,North,0,3.5,3.5,100,0.00,RA,SKC,0.00,WeatherDisplay:10.37,2013-06-26 04:01:00,
2013-06-26 00:02:00,65.5,65.5,28.68,North,0,3.5,3.5,100,0.00,RA,SKC,0.00,WeatherDisplay:10.37,2013-06-26 04:02:00,
2013-06-26 00:03:00,65.5,65.5,28.68,North,0,3.5,3.5,100,0.00,RA,SKC,0.00,WeatherDisplay:10.37,2013-06-26 04:03:00,
2013-06-26 00:06:00,65.5,65.5,28.70,South,180,6.9,6.9,100,0.00,RA,SKC,0.00,WeatherDisplay:10.37,2013-06-26 04:06:00,
2013-06-26 00:11:00,65.5,65.5,28.72,South,180,17.3,17.3,100,0.00,CLR,SKC,0.00,WeatherDisplay:10.37,2013-06-26 04:11:00,
2013-06-26 00:16:00,65.5,65.5,28.71,North,0,15.0,15.0,100,0.00,CLR,SKC,0.00,WeatherDisplay:10.37,2013-06-26 04:16:00,
2013-06-26 00:21:00,65.7,65.7,28.72,NW,315,13.8,13.8,100,0.00,CLR,SKC,0.00,WeatherDisplay:10.37,2013-06-26 04:21:00,
2013-06-26 00:26:00,65.7,65.7,28.72,South,180,8.1,8.1,100,0.00,CLR,SKC,0.00,WeatherDisplay:10.37,2013-06-26 04:26:00,
2013-06-26 00:31:00,66.0,66.0,28.73,West,270,17.3,17.3,100,0.00,CLR,SKC,0.00,WeatherDisplay:10.37,2013-06-26 04:31:00,
2013-06-26 00:36:00,66.0,66.0,28.73,North,10,20.7,20.7,100,0.06,RA,SKC,0.06,WeatherDisplay:10.37,2013-06-26 04:36:00,
2013-06-26 00:41:00,65.8,65.8,28.73,North,0,17.3,17.3,100,0.13,RA,SKC,0.13,WeatherDisplay:10.37,2013-06-26 04:41:00,
2013-06-26 00:46:00,65.7,65.7,28.72,NNE,12,9.2,9.2,100,0.17,RA,SKC,0.17,WeatherDisplay:10.37,2013-06-26 04:46:00,
2013-06-26 00:51:00,65.3,65.3,28.70,NNE,14,11.5,11.5,100,0.17,RA,SKC,0.17,WeatherDisplay:10.37,2013-06-26 04:51:00,
2013-06-26 00:56:00,65.3,65.3,28.71,NNE,13,5.8,5.8,100,0.17,CLR,SKC,0.17,WeatherDisplay:10.37,2013-06-26 04:56:00,
2013-06-26 01:01:00,65.3,65.3,28.70,North,0,8.1,8.1,100,0.17,CLR,SKC,0.17,WeatherDisplay:10.37,2013-06-26 05:01:00,
2013-06-26 01:06:00,65.1,65.1,28.70,West,270,6.9,6.9,100,0.18,RA,SKC,0.18,WeatherDisplay:10.37,2013-06-26 05:06:00,
2013-06-26 01:11:00,65.1,65.1,28.72,West,270,17.3,17.3,100,0.21,RA,SKC,0.22,WeatherDisplay:10.37,2013-06-26 05:11:00,
2013-06-26 01:16:00,64.9,64.9,28.71,South,180,4.6,4.6,100,0.28,RA,SKC,0.31,WeatherDisplay:10.37,2013-06-26 05:16:00,
2013-06-26 01:21:00,64.9,64.9,28.69,North,0,3.5,3.5,100,0.40,RA,SKC,0.40,WeatherDisplay:10.37,2013-06-26 05:21:00,
2013-06-26 01:26:00,64.8,64.8,28.70,East,90,0.0,0.0,100,0.45,RA,SKC,0.45,WeatherDisplay:10.37,2013-06-26 05:26:00,
2013-06-26 01:31:00,64.8,64.8,28.70,South,180,3.5,0.0,100,0.50,RA,SKC,0.50,WeatherDisplay:10.37,2013-06-26 05:31:00,
2013-06-26 01:36:00,64.9,64.9,28.71,South,180,3.5,3.5,100,0.47,RA,SKC,0.53,WeatherDisplay:10.37,2013-06-26 05:36:00,
2013-06-26 01:41:00,64.9,64.9,28.70,South,180,5.8,5.8,100,0.43,RA,SKC,0.56,WeatherDisplay:10.37,2013-06-26 05:41:00,
2013-06-26 01:46:00,64.9,64.9,28.70,East,90,0.0,0.0,100,0.40,RA,SKC,0.57,WeatherDisplay:10.37,2013-06-26 05:46:00,
2013-06-26 01:51:00,64.9,64.9,28.71,East,90,0.0,0.0,100,0.41,RA,SKC,0.58,WeatherDisplay:10.37,2013-06-26 05:51:00,
2013-06-26 01:56:00,64.9,64.9,28.70,East,90,0.0,0.0,100,0.43,RA,SKC,0.59,WeatherDisplay:10.37,2013-06-26 05:56:00,
2013-06-26 02:01:00,65.1,65.1,28.70,North,0,0.0,0.0,100,0.44,RA,SKC,0.60,WeatherDisplay:10.37,2013-06-26 06:01:00,
2013-06-26 02:06:00,65.1,65.1,28.69,North,0,0.0,0.0,100,0.44,RA,SKC,0.61,WeatherDisplay:10.37,2013-06-26 06:06:00,
2013-06-26 02:11:00,65.1,65.1,28.70,North,0,0.0,0.0,100,0.41,RA,SKC,0.63,WeatherDisplay:10.37,2013-06-26 06:11:00,
2013-06-26 02:16:00,65.1,65.1,28.69,North,0,0.0,0.0,100,0.37,RA,SKC,0.65,WeatherDisplay:10.37,2013-06-26 06:16:00,
2013-06-26 02:21:00,65.1,65.1,28.69,North,0,1.2,0.0,100,0.26,RA,SKC,0.66,WeatherDisplay:10.37,2013-06-26 06:21:00,
2013-06-26 02:26:00,65.5,65.5,28.68,North,0,1.2,0.0,100,0.22,RA,SKC,0.67,WeatherDisplay:10.37,2013-06-26 06:26:00,
2013-06-26 02:31:00,65.1,65.1,28.68,NE,45,2.3,0.0,100,0.19,RA,SKC,0.69,WeatherDisplay:10.37,2013-06-26 06:31:00,
2013-06-26 02:36:00,65.1,65.1,28.68,NE,45,3.5,3.5,100,0.17,RA,SKC,0.70,WeatherDisplay:10.37,2013-06-26 06:36:00,
2013-06-26 02:41:00,64.9,64.9,28.68,NE,45,3.5,3.5,100,0.15,RA,SKC,0.71,WeatherDisplay:10.37,2013-06-26 06:41:00,
2013-06-26 02:46:00,64.9,64.9,28.68,NE,45,2.3,2.3,100,0.14,RA,SKC,0.71,WeatherDisplay:10.37,2013-06-26 06:46:00,
2013-06-26 02:51:00,64.9,64.9,28.68,NE,45,2.3,0.0,100,0.14,RA,SKC,0.72,WeatherDisplay:10.37,2013-06-26 06:51:00,
2013-06-26 02:56:00,64.9,64.9,28.68,NE,45,1.2,0.0,100,0.13,RA,SKC,0.72,WeatherDisplay:10.37,2013-06-26 06:56:00,
2013-06-26 03:01:00,64.9,64.9,28.68,East,90,2.3,2.3,100,0.13,RA,SKC,0.73,WeatherDisplay:10.37,2013-06-26 07:01:00,
2013-06-26 03:06:00,64.9,64.9,28.69,NE,45,1.2,0.0,100,0.13,RA,SKC,0.74,WeatherDisplay:10.37,2013-06-26 07:06:00,
2013-06-26 03:11:00,64.9,64.9,28.68,NE,45,2.3,2.3,100,0.14,RA,SKC,0.77,WeatherDisplay:10.37,2013-06-26 07:11:00,
2013-06-26 03:16:00,64.9,64.9,28.68,NE,45,2.3,0.0,100,0.13,RA,SKC,0.78,WeatherDisplay:10.37,2013-06-26 07:16:00,
2013-06-26 03:21:00,64.9,64.9,28.68,NE,45,4.6,4.6,100,0.13,RA,SKC,0.79,WeatherDisplay:10.37,2013-06-26 07:21:00,
2013-06-26 03:26:00,64.9,64.9,28.68,East,90,4.6,4.6,100,0.13,RA,SKC,0.80,WeatherDisplay:10.37,2013-06-26 07:26:00,
2013-06-26 03:31:00,64.9,64.9,28.68,NE,45,4.6,4.6,100,0.12,RA,SKC,0.80,WeatherDisplay:10.37,2013-06-26 07:31:00,
2013-06-26 03:36:00,64.9,64.9,28.67,East,90,5.8,5.8,100,0.12,RA,SKC,0.81,WeatherDisplay:10.37,2013-06-26 07:36:00,
2013-06-26 03:41:00,64.9,64.9,28.67,NE,45,4.6,4.6,100,0.12,RA,SKC,0.83,WeatherDisplay:10.37,2013-06-26 07:41:00,
2013-06-26 03:46:00,64.8,64.8,28.67,East,90,4.6,4.6,100,0.13,RA,SKC,0.84,WeatherDisplay:10.37,2013-06-26 07:46:00,
2013-06-26 03:51:00,64.8,64.8,28.67,NE,45,3.5,3.5,100,0.13,RA,SKC,0.85,WeatherDisplay:10.37,2013-06-26 07:51:00,
2013-06-26 03:56:00,64.8,64.8,28.67,North,0,3.5,3.5,100,0.14,RA,SKC,0.86,WeatherDisplay:10.37,2013-06-26 07:56:00,
2013-06-26 04:01:00,64.8,64.8,28.67,NE,45,2.3,0.0,100,0.14,RA,SKC,0.87,WeatherDisplay:10.37,2013-06-26 08:01:00,
2013-06-26 04:06:00,64.8,64.8,28.67,East,90,3.5,0.0,100,0.14,RA,SKC,0.90,WeatherDisplay:10.37,2013-06-26 08:06:00,
2013-06-26 04:11:00,64.8,64.8,28.67,NE,45,2.3,0.0,100,0.13,RA,SKC,0.90,WeatherDisplay:10.37,2013-06-26 08:11:00,
2013-06-26 04:16:00,64.8,64.8,28.67,NE,45,1.2,1.6,100,0.13,RA,SKC,0.91,WeatherDisplay:10.37,2013-06-26 08:16:00,
2013-06-26 04:21:00,64.8,64.8,28.66,East,90,3.5,3.5,100,0.13,RA,SKC,0.92,WeatherDisplay:10.37,2013-06-26 08:21:00,
2013-06-26 04:26:00,64.8,64.8,28.66,East,90,3.8,3.8,100,0.13,RA,SKC,0.94,WeatherDisplay:10.37,2013-06-26 08:26:00,
2013-06-26 04:31:00,64.6,64.6,28.67,East,90,2.3,0.0,100,0.14,RA,SKC,0.94,WeatherDisplay:10.37,2013-06-26 08:31:00,
2013-06-26 04:36:00,64.8,64.8,28.67,NE,45,2.3,0.0,100,0.14,RA,SKC,0.96,WeatherDisplay:10.37,2013-06-26 08:36:00,
2013-06-26 04:41:00,64.8,64.8,28.67,East,90,5.8,0.0,100,0.14,RA,SKC,0.97,WeatherDisplay:10.37,2013-06-26 08:41:00,
2013-06-26 04:46:00,64.8,64.8,28.67,East,90,2.3,2.3,100,0.14,RA,SKC,0.99,WeatherDisplay:10.37,2013-06-26 08:46:00,
2013-06-26 04:51:00,64.8,64.8,28.67,NE,45,3.5,0.0,100,0.15,RA,SKC,1.00,WeatherDisplay:10.37,2013-06-26 08:51:00,
2013-06-26 04:56:00,64.8,64.8,28.67,NE,45,3.5,3.5,100,0.15,RA,SKC,1.03,WeatherDisplay:10.37,2013-06-26 08:56:00,
2013-06-26 05:01:00,64.8,64.8,28.65,NE,45,2.3,2.3,100,0.17,RA,SKC,1.04,WeatherDisplay:10.37,2013-06-26 09:01:00,
2013-06-26 05:06:00,64.8,64.8,28.65,NE,45,2.3,0.0,100,0.17,RA,SKC,1.05,WeatherDisplay:10.37,2013-06-26 09:06:00,
2013-06-26 05:11:00,64.8,64.8,28.65,NE,45,1.2,0.0,100,0.17,RA,SKC,1.06,WeatherDisplay:10.37,2013-06-26 09:11:00,
2013-06-26 05:16:00,64.8,64.8,28.66,East,90,1.2,0.0,100,0.15,RA,SKC,1.06,WeatherDisplay:10.37,2013-06-26 09:16:00,
2013-06-26 05:21:00,64.8,64.8,28.67,East,90,1.2,0.0,100,0.15,RA,SKC,1.07,WeatherDisplay:10.37,2013-06-26 09:21:00,
2013-06-26 05:26:00,64.9,64.9,28.66,East,90,1.2,0.0,100,0.14,RA,SKC,1.07,WeatherDisplay:10.37,2013-06-26 09:26:00,
2013-06-26 05:31:00,64.8,64.8,28.66,NE,45,0.0,0.0,100,0.14,RA,SKC,1.09,WeatherDisplay:10.37,2013-06-26 09:31:00,
2013-06-26 05:36:00,64.8,64.8,28.66,East,90,2.3,0.0,100,0.13,RA,SKC,1.09,WeatherDisplay:10.37,2013-06-26 09:36:00,
2013-06-26 05:41:00,64.8,64.8,28.66,East,90,0.0,0.0,100,0.13,RA,SKC,1.10,WeatherDisplay:10.37,2013-06-26 09:41:00,
2013-06-26 05:46:00,64.8,64.8,28.65,East,90,0.0,0.0,100,0.12,RA,SKC,1.10,WeatherDisplay:10.37,2013-06-26 09:46:00,
2013-06-26 05:51:00,64.9,64.9,28.66,East,90,1.2,0.0,100,0.09,,SKC,1.10,WeatherDisplay:10.37,2013-06-26 09:51:00,
2013-06-26 05:56:00,64.9,64.9,28.66,East,90,0.0,0.0,100,0.08,CLR,SKC,1.10,WeatherDisplay:10.37,2013-06-26 09:56:00,
2013-06-26 06:01:00,64.9,64.9,28.67,East,90,2.3,2.3,100,0.07,RA,SKC,1.11,WeatherDisplay:10.37,2013-06-26 10:01:00,
2013-06-26 06:06:00,64.9,64.9,28.67,NE,45,1.2,0.0,100,0.06,RA,SKC,1.11,WeatherDisplay:10.37,2013-06-26 10:06:00,
2013-06-26 06:11:00,64.9,64.9,28.68,SE,135,0.0,0.0,100,0.05,CLR,SKC,1.11,WeatherDisplay:10.37,2013-06-26 10:11:00,
2013-06-26 06:16:00,65.1,65.1,28.68,SE,135,0.0,0.0,100,0.05,CLR,SKC,1.11,WeatherDisplay:10.37,2013-06-26 10:16:00,
2013-06-26 06:21:00,65.1,65.1,28.68,East,90,2.3,2.3,100,0.04,CLR,SKC,1.11,WeatherDisplay:10.37,2013-06-26 10:21:00,
2013-06-26 06:26:00,65.1,65.1,28.67,NE,45,1.2,0.0,100,0.05,RA,SKC,1.12,WeatherDisplay:10.37,2013-06-26 10:26:00,
2013-06-26 06:31:00,65.1,65.1,28.66,NE,45,3.5,3.5,100,0.04,RA,SKC,1.12,WeatherDisplay:10.37,2013-06-26 10:31:00,
2013-06-26 06:36:00,65.1,65.1,28.65,NE,45,2.3,0.0,100,0.06,RA,SKC,1.15,WeatherDisplay:10.37,2013-06-26 10:36:00,
2013-06-26 06:41:00,64.9,64.9,28.65,East,90,5.8,0.0,100,0.05,RA,SKC,1.15,WeatherDisplay:10.37,2013-06-26 10:41:00,
2013-06-26 06:46:00,64.9,64.9,28.66,SE,135,1.2,0.0,100,0.06,RA,SKC,1.16,WeatherDisplay:10.37,2013-06-26 10:46:00,
2013-06-26 06:51:00,64.9,64.9,28.65,NE,45,3.5,3.5,100,0.06,RA,SKC,1.16,WeatherDisplay:10.37,2013-06-26 10:51:00,
2013-06-26 06:56:00,65.1,65.1,28.64,North,0,5.8,5.8,100,0.07,RA,SKC,1.17,WeatherDisplay:10.37,2013-06-26 10:56:00,
2013-06-26 07:01:00,65.1,65.1,28.63,SE,135,3.5,3.5,100,0.06,RA,SKC,1.17,WeatherDisplay:10.37,2013-06-26 11:01:00,
2013-06-26 07:06:00,65.1,65.1,28.62,NE,45,4.6,4.6,100,0.07,RA,SKC,1.18,WeatherDisplay:10.37,2013-06-26 11:06:00,
2013-06-26 07:11:00,65.1,65.1,28.59,NE,45,4.6,4.6,100,0.07,RA,SKC,1.18,WeatherDisplay:10.37,2013-06-26 11:11:00,
2013-06-26 07:16:00,65.1,65.1,28.58,North,0,3.5,3.5,100,0.07,,SKC,1.18,WeatherDisplay:10.37,2013-06-26 11:16:00,
2013-06-26 07:21:00,65.1,65.1,28.59,NE,45,6.9,6.9,100,0.07,CLR,SKC,1.18,WeatherDisplay:10.37,2013-06-26 11:21:00,
2013-06-26 07:26:00,65.1,65.1,28.62,NE,45,5.8,5.8,100,0.06,CLR,SKC,1.18,WeatherDisplay:10.37,2013-06-26 11:26:00,
2013-06-26 07:31:00,65.3,65.3,28.61,NE,45,5.8,5.8,100,0.06,CLR,SKC,1.18,WeatherDisplay:10.37,2013-06-26 11:31:00,
2013-06-26 07:36:00,65.3,65.3,28.62,NE,45,3.5,3.5,100,0.04,CLR,SKC,1.18,WeatherDisplay:10.37,2013-06-26 11:36:00,
2013-06-26 07:41:00,65.5,65.5,28.61,NE,45,10.4,10.4,100,0.04,CLR,SKC,1.18,WeatherDisplay:10.37,2013-06-26 11:41:00,
2013-06-26 07:46:00,65.7,65.7,28.61,SE,135,4.6,4.6,100,0.02,CLR,SKC,1.18,WeatherDisplay:10.37,2013-06-26 11:46:00,
2013-06-26 07:51:00,66.0,66.0,28.61,East,90,5.8,5.8,100,0.02,CLR,SKC,1.18,WeatherDisplay:10.37,2013-06-26 11:51:00,
2013-06-26 07:56:00,66.2,66.2,28.61,NE,45,2.3,0.0,100,0.01,CLR,SKC,1.18,WeatherDisplay:10.37,2013-06-26 11:56:00,
2013-06-26 08:01:00,66.6,66.6,28.61,NE,45,0.0,1.6,100,0.01,CLR,SKC,1.18,WeatherDisplay:10.37,2013-06-26 12:01:00,
2013-06-26 08:06:00,66.7,66.7,28.61,East,90,4.6,0.0,100,0.00,CLR,SKC,1.18,WeatherDisplay:10.37,2013-06-26 12:06:00,
2013-06-26 08:11:00,67.1,67.1,28.60,NE,45,4.6,4.6,100,0.00,CLR,SKC,1.18,WeatherDisplay:10.37,2013-06-26 12:11:00,
2013-06-26 08:16:00,67.5,67.5,28.60,East,90,3.5,3.5,100,0.00,CLR,SKC,1.18,WeatherDisplay:10.37,2013-06-26 12:16:00,
2013-06-26 08:21:00,67.6,67.6,28.60,NE,45,1.2,1.6,100,0.00,CLR,SKC,1.18,WeatherDisplay:10.37,2013-06-26 12:21:00,
2013-06-26 08:26:00,68.0,68.0,28.60,East,90,3.5,3.5,100,0.00,CLR,SKC,1.18,WeatherDisplay:10.37,2013-06-26 12:26:00,
2013-06-26 08:31:00,68.0,68.0,28.60,NE,45,3.5,0.0,100,0.00,CLR,SKC,1.18,WeatherDisplay:10.37,2013-06-26 12:31:00,
2013-06-26 08:36:00,68.2,68.2,28.60,NE,45,3.5,3.5,100,0.00,CLR,SKC,1.18,WeatherDisplay:10.37,2013-06-26 12:36:00,
2013-06-26 08:41:00,68.5,68.5,28.60,SE,135,1.2,0.0,100,0.00,CLR,SKC,1.18,WeatherDisplay:10.37,2013-06-26 12:41:00,
2013-06-26 08:46:00,69.3,69.3,28.60,SSE,158,3.1,3.1,100,0.00,CLR,SKC,1.18,WeatherDisplay:10.37,2013-06-26 12:46:00,
2013-06-26 08:51:00,69.8,69.8,28.61,East,90,0.0,0.0,100,0.00,CLR,SKC,1.18,WeatherDisplay:10.37,2013-06-26 12:51:00,
2013-06-26 08:56:00,70.2,70.2,28.61,East,90,3.5,0.0,100,0.00,CLR,SKC,1.18,WeatherDisplay:10.37,2013-06-26 12:56:00,
2013-06-26 09:01:00,70.2,70.2,28.61,SE,135,1.2,0.0,100,0.00,CLR,SKC,1.18,WeatherDisplay:10.37,2013-06-26 13:01:00,
2013-06-26 09:06:00,70.2,70.2,28.62,NE,45,2.3,0.0,100,0.00,CLR,SKC,1.18,WeatherDisplay:10.37,2013-06-26 13:06:00,
2013-06-26 09:11:00,70.0,70.0,28.62,East,90,1.2,0.0,100,0.00,CLR,SKC,1.18,WeatherDisplay:10.37,2013-06-26 13:11:00,
2013-06-26 09:16:00,69.8,69.8,28.62,SE,135,0.0,0.0,100,0.00,CLR,SKC,1.18,WeatherDisplay:10.37,2013-06-26 13:16:00,
2013-06-26 09:21:00,69.8,69.8,28.62,South,180,2.3,0.0,100,0.00,CLR,SKC,1.18,WeatherDisplay:10.37,2013-06-26 13:21:00,
2013-06-26 09:26:00,69.8,69.8,28.62,East,90,1.2,0.0,100,0.00,CLR,SKC,1.18,WeatherDisplay:10.37,2013-06-26 13:26:00,
2013-06-26 09:31:00,69.6,69.6,28.62,NE,45,5.8,0.0,100,0.00,CLR,SKC,1.18,WeatherDisplay:10.37,2013-06-26 13:31:00,
2013-06-26 09:36:00,69.8,69.8,28.62,NE,45,1.2,0.0,100,0.00,CLR,SKC,1.18,WeatherDisplay:10.37,2013-06-26 13:36:00,
2013-06-26 09:41:00,70.3,70.3,28.62,South,180,1.2,1.2,100,0.00,CLR,SKC,1.18,WeatherDisplay:10.37,2013-06-26 13:41:00,
2013-06-26 09:46:00,72.1,72.1,28.62,NE,45,0.0,0.0,100,0.00,CLR,SKC,1.18,WeatherDisplay:10.37,2013-06-26 13:46:00,
2013-06-26 09:51:00,73.0,73.0,28.62,NE,45,3.5,0.0,100,0.00,CLR,SKC,1.18,WeatherDisplay:10.37,2013-06-26 13:51:00,
2013-06-26 09:56:00,73.8,73.8,28.62,NE,45,0.0,0.0,100,0.00,CLR,SKC,1.18,WeatherDisplay:10.37,2013-06-26 13:56:00,
2013-06-26 10:01:00,74.1,74.1,28.62,SE,135,2.3,0.0,100,0.00,CLR,SKC,1.18,WeatherDisplay:10.37,2013-06-26 14:01:00,
2013-06-26 10:06:00,75.2,75.2,28.62,SE,135,3.5,0.0,100,0.00,CLR,SKC,1.18,WeatherDisplay:10.37,2013-06-26 14:06:00,
2013-06-26 10:12:00,77.0,77.0,28.62,SE,135,4.6,4.6,100,0.00,CLR,SKC,1.18,WeatherDisplay:10.37,2013-06-26 14:12:00,
2013-06-26 10:17:00,77.5,77.5,28.62,SE,135,1.2,0.0,100,0.00,CLR,SKC,1.18,WeatherDisplay:10.37,2013-06-26 14:17:00,
2013-06-26 10:22:00,77.4,61.4,28.62,South,180,3.5,3.5,58,0.00,CLR,SKC,1.18,WeatherDisplay:10.37,2013-06-26 14:22:00,
2013-06-26 10:27:00,77.5,61.6,28.61,South,180,3.5,0.0,58,0.00,CLR,SKC,1.18,WeatherDisplay:10.37,2013-06-26 14:27:00,
2013-06-26 10:32:00,78.3,62.3,28.62,East,90,4.6,0.0,58,0.00,CLR,SKC,1.18,WeatherDisplay:10.37,2013-06-26 14:32:00,
2013-06-26 10:37:00,78.4,62.4,28.63,East,90,5.8,5.8,58,0.00,CLR,SKC,1.18,WeatherDisplay:10.37,2013-06-26 14:37:00,
2013-06-26 10:42:00,78.8,62.8,28.63,East,90,3.5,3.5,58,0.00,CLR,SKC,1.18,WeatherDisplay:10.37,2013-06-26 14:42:00,
2013-06-26 10:47:00,78.4,62.4,28.63,SE,135,4.6,4.6,58,0.00,CLR,SKC,1.18,WeatherDisplay:10.37,2013-06-26 14:47:00,
2013-06-26 10:52:00,78.1,62.1,28.63,South,180,1.2,0.0,58,0.00,CLR,SKC,1.18,WeatherDisplay:10.37,2013-06-26 14:52:00,
2013-06-26 10:57:00,77.5,61.6,28.63,SE,135,1.2,0.0,58,0.00,CLR,SKC,1.18,WeatherDisplay:10.37,2013-06-26 14:57:00,
2013-06-26 11:02:00,77.2,61.3,28.63,East,90,0.0,0.0,58,0.00,CLR,SKC,1.18,WeatherDisplay:10.37,2013-06-26 15:02:00,
2013-06-26 11:07:00,77.0,61.1,28.63,South,180,1.2,0.0,58,0.00,CLR,SKC,1.18,WeatherDisplay:10.37,2013-06-26 15:07:00,
2013-06-26 11:12:00,77.2,61.3,28.64,NE,45,1.2,0.0,58,0.00,CLR,SKC,1.18,WeatherDisplay:10.37,2013-06-26 15:12:00,
2013-06-26 11:17:00,77.5,61.6,28.63,SE,135,1.2,0.0,58,0.00,CLR,SKC,1.18,WeatherDisplay:10.37,2013-06-26 15:17:00,
2013-06-26 11:22:00,78.6,62.6,28.64,SE,135,2.3,2.3,58,0.00,CLR,SKC,1.18,WeatherDisplay:10.37,2013-06-26 15:22:00,
2013-06-26 11:26:00,79.0,62.9,28.64,East,90,3.5,0.0,58,0.00,CLR,SKC,1.18,WeatherDisplay:10.37,2013-06-26 15:26:00,
2013-06-26 11:31:00,79.0,62.9,28.63,East,90,6.9,0.0,58,0.00,CLR,SKC,1.18,WeatherDisplay:10.37,2013-06-26 15:31:00,
2013-06-26 11:36:00,78.8,62.8,28.63,East,90,4.6,4.6,58,0.00,CLR,SKC,1.18,WeatherDisplay:10.37,2013-06-26 15:36:00,
2013-06-26 11:41:00,78.8,62.8,28.63,SE,135,5.8,0.0,58,0.00,CLR,SKC,1.18,WeatherDisplay:10.37,2013-06-26 15:41:00,
2013-06-26 11:46:00,79.9,63.8,28.64,South,180,3.5,3.5,58,0.00,CLR,SKC,1.18,WeatherDisplay:10.37,2013-06-26 15:46:00,
2013-06-26 11:51:00,80.8,64.6,28.63,NE,45,3.5,0.0,58,0.00,CLR,SKC,1.18,WeatherDisplay:10.37,2013-06-26 15:51:00,
2013-06-26 11:56:00,82.2,66.0,28.63,North,8,3.5,0.0,58,0.00,CLR,SKC,1.18,WeatherDisplay:10.37,2013-06-26 15:56:00,
2013-06-26 12:01:00,82.4,66.1,28.63,East,90,3.5,3.5,58,0.00,CLR,SKC,1.18,WeatherDisplay:10.37,2013-06-26 16:01:00,
2013-06-26 12:06:00,81.1,65.0,28.63,West,270,3.5,3.5,58,0.00,CLR,SKC,1.18,WeatherDisplay:10.37,2013-06-26 16:06:00,
2013-06-26 12:11:00,81.5,65.3,28.63,SSE,158,1.2,0.0,58,0.00,CLR,SKC,1.18,WeatherDisplay:10.37,2013-06-26 16:11:00,
2013-06-26 12:16:00,81.1,65.0,28.63,SE,135,3.5,3.5,58,0.00,CLR,SKC,1.18,WeatherDisplay:10.37,2013-06-26 16:16:00,
2013-06-26 12:21:00,80.8,64.6,28.63,SE,135,5.8,5.8,58,0.00,CLR,SKC,1.18,WeatherDisplay:10.37,2013-06-26 16:21:00,
2013-06-26 12:26:00,81.3,65.1,28.64,South,180,1.2,1.2,58,0.00,CLR,SKC,1.18,WeatherDisplay:10.37,2013-06-26 16:26:00,
2013-06-26 12:31:00,81.0,64.8,28.64,NE,45,6.9,0.0,58,0.00,CLR,SKC,1.18,WeatherDisplay:10.37,2013-06-26 16:31:00,
2013-06-26 12:36:00,82.4,66.1,28.64,SE,135,5.8,0.0,58,0.00,CLR,SKC,1.18,WeatherDisplay:10.37,2013-06-26 16:36:00,
2013-06-26 12:41:00,82.9,66.6,28.64,South,180,6.9,6.9,58,0.00,CLR,SKC,1.18,WeatherDisplay:10.37,2013-06-26 16:41:00,
2013-06-26 12:46:00,81.9,65.6,28.64,South,180,3.5,3.5,58,0.00,CLR,SKC,1.18,WeatherDisplay:10.37,2013-06-26 16:46:00,
2013-06-26 12:51:00,80.2,64.1,28.65,NW,315,6.9,0.0,58,0.00,CLR,SKC,1.18,WeatherDisplay:10.37,2013-06-26 16:51:00,
2013-06-26 12:56:00,79.3,63.3,28.65,West,270,6.9,6.9,58,0.00,CLR,SKC,1.18,WeatherDisplay:10.37,2013-06-26 16:56:00,
2013-06-26 13:01:00,79.2,63.1,28.65,ESE,112,4.6,4.6,58,0.00,CLR,SKC,1.18,WeatherDisplay:10.37,2013-06-26 17:01:00,
2013-06-26 13:06:00,80.2,64.1,28.64,West,270,5.8,5.8,58,0.00,CLR,SKC,1.18,WeatherDisplay:10.37,2013-06-26 17:06:00,
2013-06-26 13:11:00,80.8,64.6,28.64,South,180,5.8,5.8,58,0.00,CLR,SKC,1.18,WeatherDisplay:10.37,2013-06-26 17:11:00,
2013-06-26 13:16:00,79.9,63.8,28.64,South,180,8.1,8.1,58,0.00,CLR,SKC,1.18,WeatherDisplay:10.37,2013-06-26 17:16:00,
2013-06-26 13:21:00,79.3,63.3,28.64,South,180,6.9,6.9,58,0.00,CLR,SKC,1.18,WeatherDisplay:10.37,2013-06-26 17:21:00,
2013-06-26 13:26:00,79.2,63.1,28.64,South,180,8.1,8.1,58,0.00,CLR,SKC,1.18,WeatherDisplay:10.37,2013-06-26 17:26:00,
2013-06-26 13:31:00,78.8,62.8,28.63,South,180,6.9,0.0,58,0.00,CLR,SKC,1.18,WeatherDisplay:10.37,2013-06-26 17:31:00,
2013-06-26 13:36:00,79.3,63.3,28.63,SE,135,3.5,0.0,58,0.00,CLR,SKC,1.18,WeatherDisplay:10.37,2013-06-26 17:36:00,
2013-06-26 13:41:00,80.4,64.3,28.62,SE,135,0.0,0.0,58,0.00,CLR,SKC,1.18,WeatherDisplay:10.37,2013-06-26 17:41:00,
2013-06-26 13:46:00,82.0,65.8,28.61,South,180,1.2,0.0,58,0.00,CLR,SKC,1.18,WeatherDisplay:10.37,2013-06-26 17:46:00,
2013-06-26 13:51:00,83.8,67.5,28.61,SE,135,1.2,0.0,58,0.00,CLR,SKC,1.18,WeatherDisplay:10.37,2013-06-26 17:51:00,
2013-06-26 13:56:00,82.8,66.5,28.61,South,180,8.1,8.1,58,0.00,CLR,SKC,1.18,WeatherDisplay:10.37,2013-06-26 17:56:00,
2013-06-26 14:01:00,82.0,65.8,28.62,South,180,3.5,3.5,58,0.00,CLR,SKC,1.18,WeatherDisplay:10.37,2013-06-26 18:01:00,
2013-06-26 14:06:00,82.0,22.3,28.62,South,180,3.5,3.5,11,0.00,CLR,SKC,1.18,WeatherDisplay:10.37,2013-06-26 18:06:00,
2013-06-26 14:12:00,82.9,25.1,28.62,South,180,2.3,2.3,12,0.00,CLR,SKC,1.18,WeatherDisplay:10.37,2013-06-26 18:12:00,
2013-06-26 14:17:00,81.7,36.7,28.62,East,90,10.4,0.0,20,0.00,CLR,SKC,1.18,WeatherDisplay:10.37,2013-06-26 18:17:00,
2013-06-26 14:22:00,81.9,40.4,28.62,East,90,3.5,3.5,23,0.00,CLR,SKC,1.18,WeatherDisplay:10.37,2013-06-26 18:22:00,
2013-06-26 14:27:00,82.4,44.1,28.61,East,90,5.8,5.8,26,0.00,CLR,SKC,1.18,WeatherDisplay:10.37,2013-06-26 18:27:00,
2013-06-26 14:32:00,81.0,48.3,28.62,South,180,9.2,9.2,32,0.00,CLR,SKC,1.18,WeatherDisplay:10.37,2013-06-26 18:32:00,
2013-06-26 14:37:00,80.2,50.9,28.61,South,180,3.5,3.5,36,0.00,CLR,SKC,1.18,WeatherDisplay:10.37,2013-06-26 18:37:00,
2013-06-26 14:42:00,79.9,54.1,28.61,SE,135,6.9,6.9,41,0.00,CLR,SKC,1.18,WeatherDisplay:10.37,2013-06-26 18:42:00,
2013-06-26 14:47:00,80.2,55.1,28.61,South,180,3.5,3.5,42,0.00,CLR,SKC,1.18,WeatherDisplay:10.37,2013-06-26 18:47:00,
2013-06-26 14:52:00,82.4,56.3,28.61,South,180,1.2,1.2,41,0.00,CLR,SKC,1.18,WeatherDisplay:10.37,2013-06-26 18:52:00,
2013-06-26 14:57:00,82.8,53.8,28.61,South,180,4.6,4.6,37,0.00,CLR,SKC,1.18,WeatherDisplay:10.37,2013-06-26 18:57:00,
2013-06-26 15:02:00,83.8,52.5,28.61,East,90,2.3,2.3,34,0.00,CLR,SKC,1.18,WeatherDisplay:10.37,2013-06-26 19:02:00,
2013-06-26 15:07:00,84.2,52.8,28.61,South,180,5.8,5.8,34,0.00,CLR,SKC,1.18,WeatherDisplay:10.37,2013-06-26 19:07:00,
2013-06-26 15:12:00,84.2,52.8,28.61,South,180,8.1,8.1,34,0.00,CLR,SKC,1.18,WeatherDisplay:10.37,2013-06-26 19:12:00,
2013-06-26 15:17:00,83.1,55.6,28.61,NW,315,9.2,9.2,39,0.00,CLR,SKC,1.18,WeatherDisplay:10.37,2013-06-26 19:17:00,
2013-06-26 15:22:00,82.6,59.7,28.61,South,180,10.4,10.4,46,0.00,CLR,SKC,1.18,WeatherDisplay:10.37,2013-06-26 19:22:00,
2013-06-26 15:27:00,83.3,58.5,28.61,SE,135,3.5,3.5,43,0.00,CLR,SKC,1.18,WeatherDisplay:10.37,2013-06-26 19:27:00,
2013-06-26 15:32:00,84.4,58.8,28.60,South,180,3.5,3.5,42,0.00,CLR,SKC,1.18,WeatherDisplay:10.37,2013-06-26 19:32:00,
2013-06-26 15:37:00,82.9,59.4,28.60,West,270,11.5,11.5,45,0.00,CLR,SKC,1.18,WeatherDisplay:10.37,2013-06-26 19:37:00,
2013-06-26 15:42:00,83.3,59.1,28.60,South,180,3.5,3.5,44,0.00,CLR,SKC,1.18,WeatherDisplay:10.37,2013-06-26 19:42:00,
2013-06-26 15:47:00,83.1,58.9,28.60,SE,135,5.8,5.8,44,0.00,CLR,SKC,1.18,WeatherDisplay:10.37,2013-06-26 19:47:00,
2013-06-26 15:52:00,82.6,59.7,28.60,SE,135,5.8,5.8,46,0.00,CLR,SKC,1.18,WeatherDisplay:10.37,2013-06-26 19:52:00,
2013-06-26 15:58:00,82.4,60.7,28.59,South,180,16.1,16.1,48,0.00,CLR,SKC,1.18,WeatherDisplay:10.37,2013-06-26 19:58:00,
2013-06-26 16:03:00,81.9,62.5,28.60,South,180,9.2,9.2,52,0.00,CLR,SKC,1.18,WeatherDisplay:10.37,2013-06-26 20:03:00,
2013-06-26 16:08:00,81.9,63.1,28.60,SE,135,8.1,8.1,53,0.00,CLR,SKC,1.18,WeatherDisplay:10.37,2013-06-26 20:08:00,
2013-06-26 16:13:00,82.8,64.4,28.59,South,180,3.5,0.0,54,0.00,CLR,SKC,1.18,WeatherDisplay:10.37,2013-06-26 20:13:00,
2013-06-26 16:18:00,82.9,64.6,28.60,South,180,4.6,4.6,54,0.00,CLR,SKC,1.18,WeatherDisplay:10.37,2013-06-26 20:18:00,
2013-06-26 16:23:00,83.3,64.9,28.60,SE,135,5.8,0.0,54,0.00,CLR,SKC,1.18,WeatherDisplay:10.37,2013-06-26 20:23:00,
2013-06-26 16:28:00,83.8,64.3,28.60,SE,135,5.8,5.8,52,0.00,CLR,SKC,1.18,WeatherDisplay:10.37,2013-06-26 20:28:00,
2013-06-26 16:33:00,83.1,64.2,28.59,South,180,10.4,10.4,53,0.00,CLR,SKC,1.18,WeatherDisplay:10.37,2013-06-26 20:33:00,
2013-06-26 16:38:00,82.2,65.0,28.60,South,180,9.2,9.2,56,0.00,CLR,SKC,1.18,WeatherDisplay:10.37,2013-06-26 20:38:00,
2013-06-26 16:43:00,82.2,65.5,28.59,South,180,5.8,5.8,57,0.00,CLR,SKC,1.18,WeatherDisplay:10.37,2013-06-26 20:43:00,
2013-06-26 16:48:00,82.6,65.8,28.60,South,180,4.6,4.6,57,0.00,CLR,SKC,1.18,WeatherDisplay:10.37,2013-06-26 20:48:00,
2013-06-26 16:53:00,82.4,66.1,28.59,South,180,6.9,6.9,58,0.00,CLR,SKC,1.18,WeatherDisplay:10.37,2013-06-26 20:53:00,
2013-06-26 16:58:00,81.9,66.6,28.59,South,180,4.6,0.0,60,0.00,CLR,SKC,1.18,WeatherDisplay:10.37,2013-06-26 20:58:00,
2013-06-26 17:03:00,81.9,67.1,28.59,East,90,0.0,0.0,61,0.00,CLR,SKC,1.18,WeatherDisplay:10.37,2013-06-26 21:03:00,
2013-06-26 17:08:00,82.2,67.9,28.59,NE,45,0.0,0.0,62,0.00,CLR,SKC,1.18,WeatherDisplay:10.37,2013-06-26 21:08:00,
2013-06-26 17:13:00,82.9,69.0,28.59,East,90,0.0,0.0,63,0.00,CLR,SKC,1.18,WeatherDisplay:10.37,2013-06-26 21:13:00,
2013-06-26 17:18:00,83.3,68.9,28.59,SE,135,0.0,0.0,62,0.00,CLR,SKC,1.18,WeatherDisplay:10.37,2013-06-26 21:18:00,
2013-06-26 17:23:00,82.9,68.6,28.59,NE,45,0.0,0.0,62,0.00,CLR,SKC,1.18,WeatherDisplay:10.37,2013-06-26 21:23:00,
2013-06-26 17:28:00,83.1,69.2,28.59,East,90,0.0,0.0,63,0.00,CLR,SKC,1.18,WeatherDisplay:10.37,2013-06-26 21:28:00,
2013-06-26 17:33:00,82.8,68.4,28.58,South,180,4.6,0.0,62,0.00,CLR,SKC,1.18,WeatherDisplay:10.37,2013-06-26 21:33:00,
2013-06-26 17:38:00,82.6,69.2,28.58,East,90,0.0,0.0,64,0.00,CLR,SKC,1.18,WeatherDisplay:10.37,2013-06-26 21:38:00,
2013-06-26 17:43:00,82.6,69.6,28.58,SE,135,0.0,0.0,65,0.00,CLR,SKC,1.18,WeatherDisplay:10.37,2013-06-26 21:43:00,
2013-06-26 17:48:00,82.4,69.4,28.57,South,180,0.0,0.0,65,0.00,CLR,SKC,1.18,WeatherDisplay:10.37,2013-06-26 21:48:00,
2013-06-26 17:53:00,82.2,69.7,28.57,East,90,0.0,0.0,66,0.00,CLR,SKC,1.18,WeatherDisplay:10.37,2013-06-26 21:53:00,
2013-06-26 17:58:00,82.6,70.5,28.56,NE,45,0.0,0.0,67,0.00,CLR,SKC,1.18,WeatherDisplay:10.37,2013-06-26 21:58:00,
2013-06-26 18:03:00,82.0,70.0,28.57,East,90,0.0,0.0,67,0.00,CLR,SKC,1.18,WeatherDisplay:10.37,2013-06-26 22:03:00,
2013-06-26 18:08:00,81.7,71.4,28.57,East,90,3.5,0.0,71,0.00,CLR,SKC,1.18,WeatherDisplay:10.37,2013-06-26 22:08:00,
2013-06-26 18:13:00,81.1,71.3,28.56,NE,45,0.0,0.0,72,0.00,CLR,SKC,1.18,WeatherDisplay:10.37,2013-06-26 22:13:00,
2013-06-26 18:18:00,80.6,71.1,28.57,East,90,4.6,4.6,73,0.00,CLR,SKC,1.18,WeatherDisplay:10.37,2013-06-26 22:18:00,
2013-06-26 18:23:00,80.4,71.4,28.57,East,90,4.6,4.6,74,0.00,CLR,SKC,1.18,WeatherDisplay:10.37,2013-06-26 22:23:00,
2013-06-26 18:28:00,80.4,72.2,28.57,East,90,2.3,2.3,76,0.00,CLR,SKC,1.18,WeatherDisplay:10.37,2013-06-26 22:28:00,
2013-06-26 18:33:00,80.4,71.8,28.56,East,90,4.6,4.6,75,0.00,CLR,SKC,1.18,WeatherDisplay:10.37,2013-06-26 22:33:00,
2013-06-26 18:38:00,80.2,71.2,28.57,East,90,5.8,5.8,74,0.00,CLR,SKC,1.18,WeatherDisplay:10.37,2013-06-26 22:38:00,
2013-06-26 18:43:00,80.2,71.6,28.57,East,90,3.5,3.5,75,0.00,CLR,SKC,1.18,WeatherDisplay:10.37,2013-06-26 22:43:00,
2013-06-26 18:48:00,80.8,71.7,28.57,South,180,0.7,0.0,74,0.00,CLR,SKC,1.18,WeatherDisplay:10.37,2013-06-26 22:48:00,
2013-06-26 18:53:00,81.5,70.8,28.57,NE,45,4.6,0.0,70,0.00,CLR,SKC,1.18,WeatherDisplay:10.37,2013-06-26 22:53:00,
2013-06-26 18:58:00,81.5,70.3,28.57,East,90,2.3,3.1,69,0.00,CLR,SKC,1.18,WeatherDisplay:10.37,2013-06-26 22:58:00,
2013-06-26 19:03:00,81.5,69.9,28.57,NE,45,5.8,5.8,68,0.00,CLR,SKC,1.18,WeatherDisplay:10.37,2013-06-26 23:03:00,
2013-06-26 19:08:00,81.5,69.5,28.56,NE,45,2.3,0.0,67,0.00,CLR,SKC,1.18,WeatherDisplay:10.37,2013-06-26 23:08:00,
2013-06-26 19:13:00,81.7,70.5,28.57,East,90,1.2,0.0,69,0.00,CLR,SKC,1.18,WeatherDisplay:10.37,2013-06-26 23:13:00,
2013-06-26 19:18:00,81.5,69.9,28.57,SE,135,2.3,0.0,68,0.00,CLR,SKC,1.18,WeatherDisplay:10.37,2013-06-26 23:18:00,
2013-06-26 19:23:00,81.1,71.7,28.57,ENE,68,1.2,1.6,73,0.00,CLR,SKC,1.18,WeatherDisplay:10.37,2013-06-26 23:23:00,
2013-06-26 19:28:00,80.2,72.0,28.57,SE,135,4.6,4.6,76,0.00,CLR,SKC,1.18,WeatherDisplay:10.37,2013-06-26 23:28:00,
2013-06-26 19:33:00,79.5,72.1,28.57,East,90,4.6,4.6,78,0.00,CLR,SKC,1.18,WeatherDisplay:10.37,2013-06-26 23:33:00,
2013-06-26 19:38:00,78.8,72.1,28.57,NE,45,5.8,5.8,80,0.00,CLR,SKC,1.18,WeatherDisplay:10.37,2013-06-26 23:38:00,
2013-06-26 19:43:00,78.4,72.1,28.58,East,90,2.3,0.0,81,0.00,CLR,SKC,1.18,WeatherDisplay:10.37,2013-06-26 23:43:00,
2013-06-26 19:48:00,78.1,72.5,28.57,NE,45,3.5,0.0,83,0.00,CLR,SKC,1.18,WeatherDisplay:10.37,2013-06-26 23:48:00,
2013-06-26 19:53:00,77.7,72.5,28.57,NE,45,4.6,4.6,84,0.00,CLR,SKC,1.18,WeatherDisplay:10.37,2013-06-26 23:53:00,
2013-06-26 19:58:00,77.5,72.3,28.57,NE,45,5.8,5.8,84,0.00,CLR,SKC,1.18,WeatherDisplay:10.37,2013-06-26 23:58:00,
2013-06-26 20:03:00,77.2,72.3,28.57,NE,45,9.2,9.2,85,0.00,CLR,SKC,1.18,WeatherDisplay:10.37,2013-06-27 00:03:00,
2013-06-26 20:08:00,77.2,72.7,28.58,NE,45,3.5,3.5,86,0.00,CLR,SKC,1.18,WeatherDisplay:10.37,2013-06-27 00:08:00,
2013-06-26 20:13:00,76.8,72.3,28.57,NE,45,1.2,0.0,86,0.00,CLR,SKC,1.18,WeatherDisplay:10.37,2013-06-27 00:13:00,
2013-06-26 20:14:00,76.8,72.7,28.58,NE,45,1.2,0.0,87,0.00,CLR,SKC,1.18,WeatherDisplay:10.37,2013-06-27 00:14:00,
2013-06-26 20:19:00,76.5,72.3,28.58,East,90,2.3,0.0,87,0.00,CLR,SKC,1.18,WeatherDisplay:10.37,2013-06-27 00:19:00,
2013-06-26 20:24:00,76.3,72.1,28.58,East,90,8.1,8.1,87,0.00,CLR,SKC,1.18,WeatherDisplay:10.37,2013-06-27 00:24:00,
2013-06-26 20:29:00,76.3,72.5,28.58,ENE,68,5.8,5.8,88,0.00,CLR,SKC,1.18,WeatherDisplay:10.37,2013-06-27 00:29:00,
2013-06-26 20:34:00,76.1,71.9,28.57,NE,45,2.3,0.0,87,0.00,CLR,SKC,1.18,WeatherDisplay:10.37,2013-06-27 00:34:00,
2013-06-26 20:39:00,75.7,71.9,28.58,SE,135,3.5,0.0,88,0.00,CLR,SKC,1.18,WeatherDisplay:10.37,2013-06-27 00:39:00,
2013-06-26 20:44:00,75.7,71.6,28.58,East,90,0.0,0.0,87,0.00,CLR,SKC,1.18,WeatherDisplay:10.37,2013-06-27 00:44:00,
2013-06-26 20:49:00,75.4,71.6,28.58,SE,135,0.0,0.0,88,0.00,CLR,SKC,1.18,WeatherDisplay:10.37,2013-06-27 00:49:00,
2013-06-26 20:54:00,75.2,71.7,28.58,East,90,0.0,0.0,89,0.00,CLR,SKC,1.18,WeatherDisplay:10.37,2013-06-27 00:54:00,
2013-06-26 20:59:00,75.0,71.9,28.58,NE,45,0.0,0.0,90,0.00,CLR,SKC,1.18,WeatherDisplay:10.37,2013-06-27 00:59:00,
2013-06-26 21:04:00,74.8,72.0,28.58,NE,45,0.0,0.0,91,0.00,CLR,SKC,1.18,WeatherDisplay:10.37,2013-06-27 01:04:00,
2013-06-26 21:09:00,74.5,72.0,28.58,East,90,0.0,0.0,92,0.00,CLR,SKC,1.18,WeatherDisplay:10.37,2013-06-27 01:09:00,
2013-06-26 21:14:00,74.3,72.1,28.57,East,90,0.0,0.0,93,0.00,CLR,SKC,1.18,WeatherDisplay:10.37,2013-06-27 01:14:00,
2013-06-26 21:19:00,74.1,72.0,28.57,East,90,0.0,0.0,93,0.00,CLR,SKC,1.18,WeatherDisplay:10.37,2013-06-27 01:19:00,
2013-06-26 21:24:00,73.9,72.1,28.57,East,90,0.0,0.0,94,0.00,CLR,SKC,1.18,WeatherDisplay:10.37,2013-06-27 01:24:00,
2013-06-26 21:30:00,73.8,71.9,28.57,East,90,0.0,0.0,94,0.00,CLR,SKC,1.18,WeatherDisplay:10.37,2013-06-27 01:30:00,
2013-06-26 21:35:00,73.6,72.1,28.57,East,90,0.0,0.0,95,0.00,CLR,SKC,1.18,WeatherDisplay:10.37,2013-06-27 01:35:00,
2013-06-26 21:40:00,73.4,71.9,28.57,East,90,0.0,0.0,95,0.00,CLR,SKC,1.18,WeatherDisplay:10.37,2013-06-27 01:40:00,
2013-06-26 21:45:00,73.2,71.7,28.57,East,90,0.0,0.0,95,0.00,CLR,SKC,1.18,WeatherDisplay:10.37,2013-06-27 01:45:00,
2013-06-26 21:50:00,73.0,71.8,28.57,East,90,0.0,0.0,96,0.00,CLR,SKC,1.18,WeatherDisplay:10.37,2013-06-27 01:50:00,
2013-06-26 21:55:00,72.9,72.0,28.57,East,90,0.0,0.0,97,0.00,CLR,SKC,1.18,WeatherDisplay:10.37,2013-06-27 01:55:00,
2013-06-26 22:00:00,72.7,71.8,28.58,East,90,0.0,0.0,97,0.00,CLR,SKC,1.18,WeatherDisplay:10.37,2013-06-27 02:00:00,
2013-06-26 22:05:00,72.5,71.9,28.58,East,90,0.0,0.0,98,0.00,CLR,SKC,1.18,WeatherDisplay:10.37,2013-06-27 02:05:00,
2013-06-26 22:10:00,72.3,71.7,28.57,East,90,0.0,0.0,98,0.00,CLR,SKC,1.18,WeatherDisplay:10.37,2013-06-27 02:10:00,
2013-06-26 22:15:00,72.5,72.5,28.57,NE,45,0.0,0.0,100,0.00,CLR,SKC,1.18,WeatherDisplay:10.37,2013-06-27 02:15:00,
2013-06-26 22:20:00,72.5,72.5,28.57,NE,45,0.0,0.0,100,0.00,CLR,SKC,1.18,WeatherDisplay:10.37,2013-06-27 02:20:00,
2013-06-26 22:25:00,72.3,72.3,28.57,NE,45,0.0,0.0,100,0.00,CLR,SKC,1.18,WeatherDisplay:10.37,2013-06-27 02:25:00,
2013-06-26 22:30:00,72.3,72.3,28.57,NE,45,0.0,0.0,100,0.00,CLR,SKC,1.18,WeatherDisplay:10.37,2013-06-27 02:30:00,
2013-06-26 22:35:00,72.0,72.0,28.58,NE,45,0.0,0.0,100,0.00,CLR,SKC,1.18,WeatherDisplay:10.37,2013-06-27 02:35:00,
2013-06-26 22:40:00,71.8,71.8,28.58,NE,45,0.0,0.0,100,0.00,CLR,SKC,1.18,WeatherDisplay:10.37,2013-06-27 02:40:00,
2013-06-26 22:45:00,71.6,71.6,28.57,NE,45,0.0,0.0,100,0.00,CLR,SKC,1.18,WeatherDisplay:10.37,2013-06-27 02:45:00,
2013-06-26 22:50:00,71.6,71.6,28.57,East,90,0.0,0.0,100,0.00,CLR,SKC,1.18,WeatherDisplay:10.37,2013-06-27 02:50:00,
2013-06-26 22:55:00,71.6,71.6,28.58,East,90,0.0,0.0,100,0.00,CLR,SKC,1.18,WeatherDisplay:10.37,2013-06-27 02:55:00,
2013-06-26 23:00:00,71.4,71.4,28.57,East,90,0.0,0.0,100,0.00,CLR,SKC,1.18,WeatherDisplay:10.37,2013-06-27 03:00:00,
2013-06-26 23:05:00,71.4,71.4,28.57,East,90,0.0,0.0,100,0.00,CLR,SKC,1.18,WeatherDisplay:10.37,2013-06-27 03:05:00,
2013-06-26 23:10:00,71.2,71.2,28.56,East,90,0.0,0.0,100,0.00,CLR,SKC,1.18,WeatherDisplay:10.37,2013-06-27 03:10:00,
2013-06-26 23:15:00,71.2,71.2,28.56,East,90,0.0,0.0,100,0.00,CLR,SKC,1.18,WeatherDisplay:10.37,2013-06-27 03:15:00,
2013-06-26 23:20:00,71.4,71.4,28.56,NE,45,0.0,0.0,100,0.00,CLR,SKC,1.18,WeatherDisplay:10.37,2013-06-27 03:20:00,
2013-06-26 23:25:00,71.6,71.6,28.56,NE,45,0.0,0.0,100,0.00,CLR,SKC,1.18,WeatherDisplay:10.37,2013-06-27 03:25:00,
2013-06-26 23:30:00,71.6,71.6,28.56,NE,45,0.0,0.0,100,0.00,CLR,SKC,1.18,WeatherDisplay:10.37,2013-06-27 03:30:00,
2013-06-26 23:35:00,71.4,71.4,28.56,North,0,0.0,0.0,100,0.00,CLR,SKC,1.18,WeatherDisplay:10.37,2013-06-27 03:35:00,
2013-06-26 23:40:00,71.1,71.1,28.56,North,0,0.0,0.0,100,0.00,CLR,SKC,1.18,WeatherDisplay:10.37,2013-06-27 03:40:00,
2013-06-26 23:45:00,70.9,70.9,28.56,NE,45,0.0,0.0,100,0.00,CLR,SKC,1.18,WeatherDisplay:10.37,2013-06-27 03:45:00,
2013-06-26 23:50:00,70.7,70.7,28.55,NE,45,0.0,0.0,100,0.00,CLR,SKC,1.18,WeatherDisplay:10.37,2013-06-27 03:50:00,
2013-06-26 23:55:00,70.7,70.7,28.55,NE,45,0.0,0.0,100,0.00,CLR,SKC,1.18,WeatherDisplay:10.37,2013-06-27 03:55:00,